createdAt,value
2023-02-02T00:01:46.501Z,6.80
2023-02-02T00:04:21.022Z,6.10
2023-02-02T00:06:52.077Z,5.70
2023-02-02T00:09:23.575Z,5.50
2023-02-02T00:11:54.508Z,5.60
2023-02-02T00:14:26.812Z,6.50
2023-02-02T00:16:59.090Z,6.40
2023-02-02T00:19:31.671Z,6.70
2023-02-02T00:22:03.387Z,6.50
2023-02-02T00:24:34.304Z,6.00
2023-02-02T00:27:05.385Z,6.10
2023-02-02T00:29:36.839Z,5.40
2023-02-02T00:32:08.361Z,5.80
2023-02-02T00:34:39.338Z,6.40
2023-02-02T00:37:10.317Z,7.40
2023-02-02T00:39:41.422Z,7.00
2023-02-02T00:42:13.447Z,6.70
2023-02-02T00:45:01.798Z,6.80
2023-02-02T00:47:32.701Z,5.90
2023-02-02T00:50:03.758Z,5.60
2023-02-02T00:52:34.759Z,6.20
2023-02-02T00:55:06.375Z,5.90
2023-02-02T00:57:37.667Z,7.00
2023-02-02T01:00:14.140Z,6.80
2023-02-02T01:02:45.437Z,7.00
2023-02-02T01:05:16.865Z,8.10
2023-02-02T01:07:48.146Z,6.70
2023-02-02T01:10:20.141Z,6.40
2023-02-02T01:12:51.119Z,6.00
2023-02-02T01:15:22.299Z,5.60
2023-02-02T01:17:53.581Z,5.90
2023-02-02T01:20:24.850Z,5.80
2023-02-02T01:22:55.802Z,6.10
2023-02-02T01:25:27.682Z,7.00
2023-02-02T01:27:59.267Z,6.10
2023-02-02T01:30:32.253Z,7.30
2023-02-02T01:33:03.194Z,6.40
2023-02-02T01:35:34.156Z,5.30
2023-02-02T01:38:05.101Z,5.50
2023-02-02T01:40:36.029Z,5.90
2023-02-02T01:43:23.469Z,5.70
2023-02-02T01:45:56.112Z,6.30
2023-02-02T01:48:33.921Z,5.30
2023-02-02T01:51:12.452Z,6.80
2023-02-02T01:53:44.917Z,6.50
2023-02-02T01:56:20.383Z,6.70
2023-02-02T01:58:51.641Z,6.90
2023-02-02T02:01:22.580Z,7.00
2023-02-02T02:03:54.277Z,5.90
2023-02-02T02:06:26.444Z,6.30
2023-02-02T02:09:03.464Z,6.30
2023-02-02T02:11:35.970Z,5.50
2023-02-02T02:14:28.104Z,5.30
2023-02-02T02:17:13.675Z,6.20
2023-02-02T02:20:28.702Z,6.40
2023-02-02T02:23:44.833Z,6.80
2023-02-02T02:26:38.725Z,6.10
2023-02-02T02:29:31.109Z,5.10
2023-02-02T02:32:13.290Z,5.30
2023-02-02T02:34:55.486Z,5.60
2023-02-02T02:37:34.893Z,5.20
2023-02-02T02:40:17.004Z,5.30
2023-02-02T02:42:51.448Z,5.10
2023-02-02T02:45:23.530Z,4.80
2023-02-02T02:47:56.176Z,4.40
2023-02-02T02:50:27.558Z,4.60
2023-02-02T02:53:06.435Z,4.30
2023-02-02T02:55:48.124Z,4.10
2023-02-02T02:58:27.565Z,4.10
2023-02-02T03:01:09.145Z,4.60
2023-02-02T03:03:55.304Z,4.50
2023-02-02T03:06:31.049Z,4.40
2023-02-02T03:09:06.247Z,5.80
2023-02-02T03:14:09.938Z,5.20
2023-02-02T03:16:41.263Z,5.10
2023-02-02T03:19:12.493Z,5.80
2023-02-02T03:21:43.472Z,5.20
2023-02-02T03:24:14.421Z,4.80
2023-02-02T03:26:46.371Z,5.70
2023-02-02T03:29:17.911Z,5.50
2023-02-02T03:31:49.472Z,5.30
2023-02-02T03:34:20.649Z,7.10
2023-02-02T03:36:51.590Z,6.20
2023-02-02T03:39:22.599Z,5.30
2023-02-02T03:41:53.819Z,5.80
2023-02-02T03:44:24.752Z,5.90
2023-02-02T03:46:57.497Z,5.40
2023-02-02T03:49:28.550Z,5.20
2023-02-02T03:51:59.463Z,4.60
2023-02-02T03:54:30.409Z,5.60
2023-02-02T03:57:01.460Z,6.60
2023-02-02T03:59:32.478Z,5.40
2023-02-02T04:02:03.435Z,5.90
2023-02-02T04:04:34.428Z,5.80
2023-02-02T04:07:05.356Z,6.10
2023-02-02T04:09:36.342Z,4.70
2023-02-02T04:12:07.661Z,5.20
2023-02-02T04:14:38.717Z,4.60
2023-02-02T04:17:09.645Z,4.40
2023-02-02T04:19:40.575Z,4.70
2023-02-02T04:22:11.613Z,5.30
2023-02-02T04:24:42.572Z,5.00
2023-02-02T04:27:13.543Z,5.30
2023-02-02T04:29:44.539Z,5.40
2023-02-02T04:32:17.776Z,3.70
2023-02-02T04:34:48.846Z,3.80
2023-02-02T04:37:19.980Z,4.10
2023-02-02T04:39:50.943Z,4.20
2023-02-02T04:42:21.906Z,5.00
2023-02-02T04:44:53.071Z,5.10
2023-02-02T04:47:23.989Z,4.70
2023-02-02T04:49:54.921Z,4.40
2023-02-02T04:52:26.276Z,3.90
2023-02-02T04:54:57.227Z,3.50
2023-02-02T04:57:29.451Z,5.20
2023-02-02T05:00:00.457Z,5.50
2023-02-02T05:02:31.616Z,4.50
2023-02-02T05:05:02.742Z,4.30
2023-02-02T05:07:34.121Z,5.10
2023-02-02T05:10:05.362Z,3.90
2023-02-02T05:12:36.278Z,3.60
2023-02-02T05:15:08.502Z,3.00
2023-02-02T05:17:39.441Z,3.70
2023-02-02T05:20:12.804Z,3.60
2023-02-02T05:22:43.917Z,6.00
2023-02-02T05:25:14.850Z,4.30
2023-02-02T05:27:47.259Z,3.90
2023-02-02T05:30:19.556Z,4.10
2023-02-02T05:32:50.475Z,3.20
2023-02-02T05:35:21.582Z,3.80
2023-02-02T05:37:52.542Z,3.80
2023-02-02T05:40:23.574Z,4.00
2023-02-02T05:42:54.626Z,4.00
2023-02-02T05:45:25.916Z,4.20
2023-02-02T05:47:58.399Z,3.40
2023-02-02T05:50:29.427Z,4.70
2023-02-02T05:53:06.245Z,3.60
2023-02-02T05:55:37.632Z,4.10
2023-02-02T05:58:08.669Z,3.70
2023-02-02T06:00:41.232Z,3.00
2023-02-02T06:03:13.248Z,3.70
2023-02-02T06:05:44.389Z,4.20
2023-02-02T06:08:15.308Z,4.00
2023-02-02T06:10:46.342Z,3.40
2023-02-02T06:13:18.397Z,3.70
2023-02-02T06:15:50.055Z,5.00
2023-02-02T06:18:21.093Z,3.80
2023-02-02T06:20:57.008Z,3.80
2023-02-02T06:23:28.913Z,3.70
2023-02-02T06:26:00.888Z,4.10
2023-02-02T06:28:32.453Z,4.10
2023-02-02T06:31:08.763Z,3.80
2023-02-02T06:33:40.011Z,4.50
2023-02-02T06:36:12.247Z,5.40
2023-02-02T06:38:43.215Z,4.40
2023-02-02T06:41:14.209Z,4.70
2023-02-02T06:43:45.383Z,4.40
2023-02-02T06:46:17.430Z,4.00
2023-02-02T06:48:48.618Z,3.80
2023-02-02T06:51:20.076Z,4.60
2023-02-02T06:53:51.655Z,3.70
2023-02-02T06:56:23.124Z,4.30
2023-02-02T06:58:54.031Z,3.50
2023-02-02T07:01:25.697Z,3.50
2023-02-02T07:03:57.020Z,3.70
2023-02-02T07:06:29.787Z,3.60
2023-02-02T07:09:03.381Z,5.10
2023-02-02T07:11:39.801Z,5.10
2023-02-02T07:14:19.402Z,3.60
2023-02-02T07:16:51.170Z,3.30
2023-02-02T07:19:22.089Z,3.30
2023-02-02T07:21:53.122Z,3.10
2023-02-02T07:24:24.084Z,3.90
2023-02-02T07:26:55.744Z,4.20
2023-02-02T07:29:26.840Z,4.80
2023-02-02T07:31:57.804Z,3.30
2023-02-02T07:34:29.050Z,4.90
2023-02-02T07:37:00.715Z,4.60
2023-02-02T07:39:35.694Z,4.30
2023-02-02T07:42:08.711Z,4.10
2023-02-02T07:44:40.331Z,4.40
2023-02-02T07:47:11.378Z,4.40
2023-02-02T07:49:42.398Z,6.60
2023-02-02T07:52:13.438Z,5.30
2023-02-02T07:54:44.475Z,5.10
2023-02-02T07:57:17.726Z,4.70
2023-02-02T07:59:50.468Z,4.70
2023-02-02T08:02:21.448Z,4.30
2023-02-02T08:04:52.415Z,4.80
2023-02-02T08:07:25.793Z,4.60
2023-02-02T08:09:56.794Z,4.20
2023-02-02T08:12:28.425Z,5.10
2023-02-02T08:14:59.448Z,4.50
2023-02-02T08:17:30.425Z,4.90
2023-02-02T08:20:01.369Z,5.00
2023-02-02T08:22:32.406Z,6.30
2023-02-02T08:25:03.396Z,4.60
2023-02-02T08:27:36.912Z,3.90
2023-02-02T08:30:10.947Z,3.60
2023-02-02T08:32:42.290Z,3.50
2023-02-02T08:35:13.357Z,3.40
2023-02-02T08:37:44.312Z,4.20
2023-02-02T08:40:16.460Z,4.20
2023-02-02T08:42:51.203Z,4.70
2023-02-02T08:46:04.420Z,4.50
2023-02-02T08:48:14.753Z,3.40
2023-02-02T08:50:46.271Z,3.90
2023-02-02T08:53:17.248Z,7.50
2023-02-02T08:55:48.370Z,5.00
2023-02-02T08:58:19.315Z,4.20
2023-02-02T09:00:51.130Z,5.40
2023-02-02T09:03:22.207Z,4.40
2023-02-02T09:05:53.196Z,4.90
2023-02-02T09:08:24.158Z,4.00
2023-02-02T09:10:55.037Z,4.30
2023-02-02T09:13:26.413Z,4.50
2023-02-02T09:16:02.409Z,3.60
2023-02-02T09:18:35.904Z,4.00
2023-02-02T09:21:09.717Z,3.70
2023-02-02T09:23:44.324Z,4.60
2023-02-02T09:26:20.234Z,5.00
2023-02-02T09:28:53.614Z,5.50
2023-02-02T09:31:26.078Z,4.20
2023-02-02T09:34:01.097Z,4.40
2023-02-02T09:36:32.852Z,4.20
2023-02-02T09:39:04.629Z,3.90
2023-02-02T09:42:02.833Z,3.80
2023-02-02T09:45:03.149Z,4.40
2023-02-02T09:47:53.519Z,4.70
2023-02-02T09:50:37.963Z,4.90
2023-02-02T09:53:18.543Z,5.10
2023-02-02T09:55:52.909Z,4.30
2023-02-02T09:58:27.489Z,4.50
2023-02-02T10:01:04.377Z,4.40
2023-02-02T10:03:38.506Z,4.40
2023-02-02T10:06:22.751Z,3.90
2023-02-02T10:08:58.647Z,4.10
2023-02-02T10:11:38.740Z,4.60
2023-02-02T10:14:21.084Z,4.10
2023-02-02T10:16:56.289Z,4.10
2023-02-02T10:22:08.767Z,3.80
2023-02-02T10:24:40.736Z,3.30
2023-02-02T10:27:26.468Z,16.10
2023-02-02T10:30:03.678Z,6.00
2023-02-02T10:32:41.432Z,4.40
2023-02-02T10:35:30.847Z,3.60
2023-02-02T10:38:10.704Z,3.70
2023-02-02T10:40:54.138Z,3.70
2023-02-02T10:43:57.551Z,3.10
2023-02-02T10:46:33.731Z,3.50
2023-02-02T10:49:16.725Z,3.70
2023-02-02T10:51:58.133Z,3.40
2023-02-02T10:54:58.866Z,4.40
2023-02-02T10:57:56.576Z,3.20
2023-02-02T11:00:31.816Z,3.30
2023-02-02T11:03:04.850Z,3.40
2023-02-02T11:05:54.334Z,4.00
2023-02-02T11:08:34.016Z,3.50
2023-02-02T11:11:19.137Z,3.40
2023-02-02T11:13:56.086Z,3.40
2023-02-02T11:16:41.553Z,4.20
2023-02-02T11:19:31.595Z,3.70
2023-02-02T11:22:04.863Z,3.70
2023-02-02T11:24:42.199Z,4.10
2023-02-02T11:27:22.321Z,4.10
2023-02-02T11:29:55.720Z,4.10
2023-02-02T11:32:36.088Z,4.20
2023-02-02T11:35:25.657Z,4.50
2023-02-02T11:38:09.512Z,5.20
2023-02-02T11:40:47.442Z,5.80
2023-02-02T11:43:21.717Z,5.20
2023-02-02T11:46:00.264Z,5.60
2023-02-02T11:48:37.002Z,5.40
2023-02-02T11:51:09.289Z,6.20
2023-02-02T11:53:47.464Z,6.50
2023-02-02T11:56:25.260Z,6.20
2023-02-02T11:58:59.501Z,5.50
2023-02-02T12:01:32.941Z,6.90
2023-02-02T12:04:22.051Z,6.10
2023-02-02T12:06:53.266Z,6.50
2023-02-02T12:09:26.603Z,6.20
2023-02-02T12:12:06.867Z,6.50
2023-02-02T12:14:49.193Z,6.20
2023-02-02T12:17:39.087Z,6.40
2023-02-02T12:20:24.215Z,8.20
2023-02-02T12:23:32.042Z,13.20
2023-02-02T12:26:26.732Z,7.90
2023-02-02T12:29:19.907Z,6.80
2023-02-02T12:32:01.387Z,7.00
2023-02-02T12:34:46.237Z,6.20
2023-02-02T12:37:30.312Z,6.10
2023-02-02T12:40:19.797Z,6.00
2023-02-02T12:43:08.778Z,6.80
2023-02-02T12:46:35.951Z,5.80
2023-02-02T12:49:39.680Z,7.10
2023-02-02T12:52:26.553Z,6.80
2023-02-02T12:55:24.665Z,6.00
2023-02-02T12:58:11.417Z,5.60
2023-02-02T13:00:56.213Z,4.50
2023-02-02T13:03:38.070Z,4.00
2023-02-02T13:06:42.654Z,4.30
2023-02-02T13:09:19.006Z,4.80
2023-02-02T13:11:55.138Z,4.60
2023-02-02T13:17:02.356Z,4.00
2023-02-02T13:19:41.731Z,4.00
2023-02-02T13:22:20.048Z,3.80
2023-02-02T13:24:55.288Z,3.90
2023-02-02T13:30:03.263Z,3.40
2023-02-02T13:32:37.438Z,3.60
2023-02-02T13:35:18.311Z,3.70
2023-02-02T13:37:55.703Z,3.90
2023-02-02T13:40:33.922Z,3.90
2023-02-02T13:43:16.772Z,3.80
2023-02-02T13:45:56.859Z,3.40
2023-02-02T13:48:40.998Z,3.50
2023-02-02T13:51:46.858Z,4.10
2023-02-02T13:54:50.724Z,3.10
2023-02-02T13:57:41.234Z,3.90
2023-02-02T14:00:21.142Z,3.70
2023-02-02T14:02:55.442Z,3.50
2023-02-02T14:05:29.557Z,3.50
2023-02-02T14:08:08.478Z,3.20
2023-02-02T14:10:43.687Z,3.40
2023-02-02T14:16:21.829Z,3.50
2023-02-02T14:19:00.284Z,3.20
2023-02-02T14:22:01.189Z,3.50
2023-02-02T14:24:54.880Z,4.00
2023-02-02T14:27:58.205Z,3.90
2023-02-02T14:30:35.444Z,3.90
2023-02-02T14:33:28.516Z,3.20
2023-02-02T14:36:03.943Z,3.70
2023-02-02T14:39:05.436Z,3.30
2023-02-02T14:42:28.522Z,4.20
2023-02-02T14:45:35.178Z,3.40
2023-02-02T14:48:13.054Z,2.90
2023-02-02T14:50:59.205Z,3.20
2023-02-02T14:53:34.756Z,2.80
2023-02-02T14:56:09.691Z,2.90
2023-02-02T14:58:45.955Z,3.00
2023-02-02T15:01:30.877Z,3.30
2023-02-02T15:04:26.814Z,2.60
2023-02-02T15:09:39.160Z,3.40
2023-02-02T15:12:21.783Z,3.00
2023-02-02T15:14:59.290Z,3.40
2023-02-02T15:17:44.740Z,3.40
2023-02-02T15:20:21.912Z,3.40
2023-02-02T15:22:58.124Z,4.20
2023-02-02T15:25:33.819Z,3.50
2023-02-02T15:28:15.119Z,2.90
2023-02-02T15:30:50.804Z,3.30
2023-02-02T15:33:30.202Z,3.10
2023-02-02T15:36:04.703Z,2.40
2023-02-02T15:38:40.314Z,2.40
2023-02-02T15:41:19.944Z,2.10
2023-02-02T15:43:51.630Z,2.10
2023-02-02T15:46:26.531Z,2.20
2023-02-02T15:49:33.819Z,2.50
2023-02-02T15:52:15.008Z,2.50
2023-02-02T15:54:54.462Z,2.90
2023-02-02T15:57:35.390Z,2.50
2023-02-02T16:00:27.662Z,4.10
2023-02-02T16:03:04.741Z,2.90
2023-02-02T16:05:51.702Z,2.60
2023-02-02T16:08:27.586Z,2.40
2023-02-02T16:11:09.692Z,2.60
2023-02-02T16:13:42.153Z,2.80
2023-02-02T16:16:26.608Z,3.40
2023-02-02T16:19:16.862Z,3.50
2023-02-02T16:21:54.915Z,3.20
2023-02-02T16:24:29.686Z,4.00
2023-02-02T16:27:02.541Z,3.50
2023-02-02T16:29:34.367Z,3.50
2023-02-02T16:32:06.538Z,3.00
2023-02-02T16:34:47.682Z,2.80
2023-02-02T16:37:23.300Z,3.00
2023-02-02T16:39:54.658Z,2.90
2023-02-02T16:42:28.762Z,2.90
2023-02-02T16:45:01.463Z,2.80
2023-02-02T16:47:43.032Z,2.70
2023-02-02T16:50:31.882Z,3.10
2023-02-02T16:53:06.723Z,2.90
2023-02-02T16:55:50.162Z,2.60
2023-02-02T16:58:25.013Z,2.30
2023-02-02T17:01:14.136Z,3.20
2023-02-02T17:03:53.424Z,2.50
2023-02-02T17:06:45.784Z,2.80
2023-02-02T17:09:36.536Z,3.00
2023-02-02T17:12:34.500Z,5.40
2023-02-02T17:15:33.391Z,3.50
2023-02-02T17:18:06.569Z,3.10
2023-02-02T17:20:37.756Z,3.50
2023-02-02T17:23:17.231Z,3.60
2023-02-02T17:25:49.024Z,3.00
2023-02-02T17:28:23.435Z,4.30
2023-02-02T17:31:02.914Z,3.80
2023-02-02T17:33:36.750Z,4.30
2023-02-02T17:36:08.543Z,4.50
2023-02-02T17:38:39.760Z,4.70
2023-02-02T17:41:14.387Z,5.90
2023-02-02T17:43:45.636Z,5.50
2023-02-02T17:46:16.600Z,5.10
2023-02-02T17:48:47.537Z,6.00
2023-02-02T17:51:19.394Z,5.30
2023-02-02T17:53:50.348Z,6.10
2023-02-02T17:56:22.242Z,9.60
2023-02-02T17:58:53.169Z,7.10
2023-02-02T18:01:24.234Z,5.50
2023-02-02T18:03:56.137Z,4.90
2023-02-02T18:06:27.363Z,4.00
2023-02-02T18:08:58.190Z,4.70
2023-02-02T18:11:29.067Z,4.40
2023-02-02T18:14:02.111Z,5.10
2023-02-02T18:16:33.439Z,4.70
2023-02-02T18:19:04.632Z,4.90
2023-02-02T18:21:35.959Z,5.40
2023-02-02T18:24:07.166Z,4.90
2023-02-02T18:26:38.033Z,4.70
2023-02-02T18:29:08.916Z,4.40
2023-02-02T18:31:42.249Z,4.50
2023-02-02T18:34:13.403Z,4.60
2023-02-02T18:36:44.302Z,5.30
2023-02-02T18:39:15.265Z,4.40
2023-02-02T18:41:46.137Z,5.20
2023-02-02T18:44:17.315Z,4.70
2023-02-02T18:46:48.365Z,4.70
2023-02-02T18:49:19.415Z,4.10
2023-02-02T18:51:50.386Z,4.20
2023-02-02T18:54:22.439Z,4.20
2023-02-02T18:56:54.044Z,3.90
2023-02-02T18:59:24.999Z,4.20
2023-02-02T19:01:56.283Z,3.70
2023-02-02T19:04:27.467Z,7.80
2023-02-02T19:07:17.659Z,6.90
2023-02-02T19:09:49.329Z,4.20
2023-02-02T19:12:20.613Z,3.50
2023-02-02T19:14:51.612Z,3.50
2023-02-02T19:17:25.383Z,3.90
2023-02-02T19:20:01.815Z,4.00
2023-02-02T19:22:33.709Z,3.80
2023-02-02T19:25:14.072Z,3.60
2023-02-02T19:27:45.229Z,4.40
2023-02-02T19:30:23.908Z,3.90
2023-02-02T19:32:55.900Z,3.90
2023-02-02T19:35:29.063Z,3.80
2023-02-02T19:38:03.837Z,4.40
2023-02-02T19:40:36.408Z,4.40
2023-02-02T19:43:21.043Z,4.00
2023-02-02T19:45:52.425Z,4.20
2023-02-02T19:48:26.100Z,3.80
2023-02-02T19:51:00.426Z,4.00
2023-02-02T19:53:42.645Z,4.10
2023-02-02T19:56:26.050Z,3.60
2023-02-02T19:58:57.753Z,4.40
2023-02-02T20:01:34.016Z,4.10
2023-02-02T20:04:06.735Z,3.80
2023-02-02T20:06:52.670Z,3.60
2023-02-02T20:09:35.605Z,4.00
2023-02-02T20:12:23.468Z,4.20
2023-02-02T20:14:56.617Z,3.90
2023-02-02T20:17:34.540Z,10.10
2023-02-02T20:20:23.163Z,5.60
2023-02-02T20:22:54.585Z,4.20
2023-02-02T20:25:26.269Z,4.10
2023-02-02T20:27:59.044Z,4.10
2023-02-02T20:30:32.007Z,3.90
2023-02-02T20:33:05.815Z,4.00
2023-02-02T20:35:41.858Z,4.30
2023-02-02T20:38:25.657Z,4.90
2023-02-02T20:40:58.047Z,4.90
2023-02-02T20:43:29.127Z,3.90
2023-02-02T20:46:00.127Z,4.30
2023-02-02T20:48:31.240Z,3.80
2023-02-02T20:51:03.351Z,4.20
2023-02-02T20:53:36.100Z,5.00
2023-02-02T20:56:09.178Z,4.30
2023-02-02T20:58:40.519Z,4.60
2023-02-02T21:01:11.816Z,4.20
2023-02-02T21:03:43.386Z,4.20
2023-02-02T21:06:14.551Z,4.70
2023-02-02T21:08:50.458Z,4.10
2023-02-02T21:11:22.402Z,4.60
2023-02-02T21:13:55.307Z,4.90
2023-02-02T21:16:27.079Z,4.30
2023-02-02T21:18:58.471Z,4.70
2023-02-02T21:21:29.917Z,4.50
2023-02-02T21:24:01.225Z,4.80
2023-02-02T21:26:36.702Z,5.20
2023-02-02T21:29:07.912Z,4.60
2023-02-02T21:31:40.169Z,4.40
2023-02-02T21:34:11.130Z,4.90
2023-02-02T21:36:46.696Z,4.90
2023-02-02T21:39:25.838Z,4.70
2023-02-02T21:42:11.606Z,4.70
2023-02-02T21:44:48.139Z,4.90
2023-02-02T21:47:30.574Z,4.30
2023-02-02T21:50:18.475Z,4.70
2023-02-02T21:52:49.551Z,4.80
2023-02-02T21:55:35.553Z,4.50
2023-02-02T21:58:20.119Z,4.60
2023-02-02T22:00:51.709Z,4.90
2023-02-02T22:03:38.361Z,5.40
2023-02-02T22:06:24.612Z,4.70
2023-02-02T22:09:00.578Z,5.40
2023-02-02T22:11:37.242Z,5.00
2023-02-02T22:14:19.427Z,5.20
2023-02-02T22:16:53.087Z,5.60
2023-02-02T22:19:36.387Z,5.60
2023-02-02T22:22:19.734Z,5.40
2023-02-02T22:24:58.167Z,5.30
2023-02-02T22:27:43.252Z,4.90
2023-02-02T22:30:27.035Z,5.30
2023-02-02T22:32:58.356Z,5.50
2023-02-02T22:35:29.545Z,4.80
2023-02-02T22:38:00.679Z,4.90
2023-02-02T22:40:32.241Z,4.70
2023-02-02T22:43:05.747Z,6.00
2023-02-02T22:45:37.256Z,4.90
2023-02-02T22:48:08.682Z,4.30
2023-02-02T22:50:42.003Z,4.60
2023-02-02T22:53:14.090Z,5.00
2023-02-02T22:55:45.056Z,4.40
2023-02-02T22:58:16.303Z,4.20
2023-02-02T23:00:47.381Z,4.40
2023-02-02T23:03:18.235Z,5.60
2023-02-02T23:05:49.428Z,4.90
2023-02-02T23:08:20.830Z,5.00
2023-02-02T23:10:52.050Z,4.20
2023-02-02T23:13:23.092Z,4.30
2023-02-02T23:19:54.399Z,4.10
2023-02-02T23:22:25.651Z,4.50
2023-02-02T23:24:56.906Z,4.00
2023-02-02T23:27:28.480Z,4.70
2023-02-02T23:29:59.419Z,5.10
2023-02-02T23:33:05.274Z,5.00
2023-02-02T23:35:42.129Z,4.70
2023-02-02T23:38:13.639Z,5.00
2023-02-02T23:40:44.701Z,5.10
2023-02-02T23:43:15.709Z,4.90
2023-02-02T23:45:47.031Z,4.90
2023-02-02T23:48:18.614Z,4.50
2023-02-02T23:50:49.620Z,4.60
2023-02-02T23:53:21.259Z,4.80
2023-02-02T23:55:52.229Z,4.60
2023-02-02T23:58:23.354Z,4.10
